Terminal Aerodrome Forecast
Issued by NWS

Home | Current Version | Previous Version | Text Only | Print | Product List | Glossary On
Versions: 1 2 3 4 5 6 7 8 9 10 11 12 13
000
FTUS44 KTSA 040520
TAFRVS
TAF
KRVS 040520Z 0406/0506 VRB04KT P6SM SCT090 BKN200
     FM041200 17006KT P6SM BKN070
     FM041800 VRB03KT P6SM BKN070 PROB30 0418/0424 5SM -TSRA
      BKN050CB
     FM050000 15006KT P6SM BKN250 PROB30 0500/0506 P6SM TSRA
      BKN050CB=

USA.gov is the U.S. government's official web portal to all federal, state and local government web resources and services.